KSLO/SLO METAR and TAF weather

Enter ICAO airport designator
Station Type Date Time Source
KSLO METAR 2019/02/23 00:55 UTC NOAA

KSLO 230055Z AUTO 09006KT 10SM BKN023 OVC050 06/01 A3021 RMK AO2 T00600005


Station Type Date Time Source
KSLO Decoded METAR 2019/02/23 00:55 UTC NOAA

Salem, Salem-Leckrone Airport, IL, United States (KSLO) 38-38-34N 088-57-51W 174M
Feb 22, 2019 - 07:55 PM EST / 2019.02.23 0055 UTC
Wind: from the E (090 degrees) at 7 MPH (6 KT):0
Visibility: 10 mile(s):0
Sky conditions: overcast
Temperature: 42.8 F (6.0 C)
Dew Point: 32.9 F (0.5 C)
Relative Humidity: 67%
Pressure (altimeter): 30.21 in. Hg (1023 hPa)
ob: KSLO 230055Z AUTO 09006KT 10SM BKN023 OVC050 06/01 A3021 RMK AO2 T00600005
cycle: 1

Station Type Date Time Source
KSLO TAF UTC NOAA

Error!


Example: see airport list